Terminal Aerodrome Forecast
Issued by NWS

Home | Current Version | Previous Version | Text Only | Print | Product List | Glossary On
Versions: 1 2 3 4 5 6 7 8 9 10 11 12 13 14 15 16 17 18 19 20 21 22 23 24 25 26 27 28 29 30 31 32 33 34 35 36 37 38 39 40 41 42 43 44 45 46 47 48 49 50
000
FTUS41 KCTP 200556
TAFJST
TAF
KJST 200556Z 2006/2106 28015G26KT P6SM -SHSN SCT025 OVC050
      TEMPO 2006/2008 2SM -SHSN BKN008 OVC013
     FM200800 28015G25KT 2SM -SHSN OVC015
     FM201200 26015G20KT P6SM VCSH BKN025
     FM201600 26013G20KT P6SM SCT025=

USA.gov is the U.S. government's official web portal to all federal, state and local government web resources and services.